Time;durP1;ratioP1;P1;durP2;ratioP2;P2;SDS_P1;SDS_P2;PMS_P1;PMS_P2;Temp;Humidity;BMP_temperature;BMP_pressure;BME280_temperature;BME280_humidity;BME280_pressure;Samples;Min_cycle;Max_cycle;Signal;HPM_P1;HPM_P2
2023/12/09 00:01:50;;;;;;;9.40;8.17;;;;;;;;;;4980799;28;20491;-71
2023/12/09 00:04:16;;;;;;;13.10;7.23;;;;;;;;;;4987818;28;20469;-72
2023/12/09 00:06:48;;;;;;;7.27;5.20;;;;;;;;;;4983902;28;21000;-71
2023/12/09 00:09:14;;;;;;;12.13;4.57;;;;;;;;;;4986071;28;20544;-71
2023/12/09 00:11:40;;;;;;;5.50;3.30;;;;;;;;;;4988811;28;20520;-71
2023/12/09 00:14:06;;;;;;;4.77;3.80;;;;;;;;;;4979934;28;20532;-72
2023/12/09 00:16:32;;;;;;;11.50;3.70;;;;;;;;;;4988006;28;20468;-71
2023/12/09 00:18:59;;;;;;;5.50;2.67;;;;;;;;;;4986707;28;20947;-72
2023/12/09 00:21:25;;;;;;;8.20;4.33;;;;;;;;;;4986759;28;20444;-71
2023/12/09 00:23:51;;;;;;;7.33;3.13;;;;;;;;;;4988114;28;20433;-71
2023/12/09 00:26:17;;;;;;;14.27;3.37;;;;;;;;;;4988630;28;20452;-71
2023/12/09 00:28:43;;;;;;;2.57;2.30;;;;;;;;;;4987816;28;20425;-71
2023/12/09 00:31:09;;;;;;;8.20;3.50;;;;;;;;;;4982607;28;20432;-72
2023/12/09 00:33:35;;;;;;;10.23;3.07;;;;;;;;;;4986350;28;20815;-71
2023/12/09 00:36:01;;;;;;;5.70;2.93;;;;;;;;;;4985964;28;20437;-72
2023/12/09 00:38:27;;;;;;;3.30;3.10;;;;;;;;;;4985343;28;20447;-71
2023/12/09 00:40:53;;;;;;;5.77;3.13;;;;;;;;;;4986571;28;20535;-71
2023/12/09 00:43:19;;;;;;;8.40;3.63;;;;;;;;;;4987379;28;20902;-71
2023/12/09 00:45:45;;;;;;;3.53;3.07;;;;;;;;;;4986132;28;20484;-71
2023/12/09 00:48:11;;;;;;;4.47;3.03;;;;;;;;;;4989484;28;20967;-71
2023/12/09 00:50:37;;;;;;;2.93;2.83;;;;;;;;;;4989619;28;20999;-71
2023/12/09 00:53:03;;;;;;;2.93;2.70;;;;;;;;;;4989855;28;20455;-71
2023/12/09 00:55:29;;;;;;;2.40;2.37;;;;;;;;;;4993292;28;20433;-71
2023/12/09 00:57:55;;;;;;;2.70;2.60;;;;;;;;;;4990551;28;20433;-71
2023/12/09 01:00:21;;;;;;;3.33;2.90;;;;;;;;;;4989920;28;20455;-71
2023/12/09 01:02:47;;;;;;;9.07;3.60;;;;;;;;;;4988855;28;20475;-72
2023/12/09 01:05:13;;;;;;;2.63;2.43;;;;;;;;;;4988006;28;20481;-71
2023/12/09 01:07:39;;;;;;;5.73;2.20;;;;;;;;;;4990060;28;20441;-71
2023/12/09 01:10:05;;;;;;;2.70;2.50;;;;;;;;;;4992023;28;21001;-71
2023/12/09 01:12:31;;;;;;;3.40;2.90;;;;;;;;;;4988167;28;20448;-71
2023/12/09 01:14:57;;;;;;;2.77;2.57;;;;;;;;;;4990129;28;20923;-71
2023/12/09 01:17:23;;;;;;;3.03;2.60;;;;;;;;;;4990463;28;20457;-71
2023/12/09 01:19:49;;;;;;;2.10;2.00;;;;;;;;;;4991795;28;20437;-71
2023/12/09 01:22:15;;;;;;;3.13;2.80;;;;;;;;;;4989579;28;20444;-72
2023/12/09 01:24:41;;;;;;;3.47;3.17;;;;;;;;;;4989733;28;20554;-71
2023/12/09 01:27:07;;;;;;;2.77;2.57;;;;;;;;;;4989217;28;20515;-71
2023/12/09 01:29:33;;;;;;;3.10;2.10;;;;;;;;;;4992430;28;20441;-71
2023/12/09 01:31:59;;;;;;;7.93;2.67;;;;;;;;;;4989720;28;20470;-71
2023/12/09 01:34:25;;;;;;;2.60;2.40;;;;;;;;;;4990035;28;20452;-71
2023/12/09 01:36:51;;;;;;;6.43;3.30;;;;;;;;;;4990646;28;20468;-71
2023/12/09 01:39:16;;;;;;;4.03;2.77;;;;;;;;;;4990846;28;20436;-71
2023/12/09 01:41:43;;;;;;;2.50;2.37;;;;;;;;;;4989950;28;20433;-71
2023/12/09 01:44:09;;;;;;;2.90;2.80;;;;;;;;;;4991571;28;20480;-71
2023/12/09 01:46:35;;;;;;;2.73;2.30;;;;;;;;;;4988766;28;20453;-71
2023/12/09 01:49:01;;;;;;;6.83;2.97;;;;;;;;;;4988491;28;20797;-71
2023/12/09 01:51:27;;;;;;;3.20;2.50;;;;;;;;;;4987313;28;20448;-71
2023/12/09 01:53:53;;;;;;;2.63;2.50;;;;;;;;;;4987937;28;20507;-71
2023/12/09 01:56:20;;;;;;;7.53;2.87;;;;;;;;;;4986112;28;20453;-71
2023/12/09 01:58:46;;;;;;;3.33;3.03;;;;;;;;;;4988013;28;20451;-71
2023/12/09 02:01:13;;;;;;;4.23;2.87;;;;;;;;;;4988375;28;20991;-71
2023/12/09 02:03:39;;;;;;;2.20;2.10;;;;;;;;;;4986143;28;20437;-71
2023/12/09 02:06:05;;;;;;;3.30;1.83;;;;;;;;;;4988926;28;20486;-71
2023/12/09 02:08:32;;;;;;;2.30;2.20;;;;;;;;;;4988744;28;20445;-72
2023/12/09 02:11:28;;;;;;;5.17;2.10;;;;;;;;;;4989477;28;20501;-71
2023/12/09 02:14:08;;;;;;;2.30;2.20;;;;;;;;;;4979295;28;20453;-71
2023/12/09 02:16:44;;;;;;;6.87;2.33;;;;;;;;;;4988855;28;20925;-72
2023/12/09 02:19:14;;;;;;;2.27;2.13;;;;;;;;;;4988815;28;20468;-71
2023/12/09 02:22:00;;;;;;;4.50;1.87;;;;;;;;;;4990423;28;20476;-72
2023/12/09 02:24:26;;;;;;;3.00;2.53;;;;;;;;;;4986608;28;20513;-71
2023/12/09 02:26:53;;;;;;;1.80;1.70;;;;;;;;;;4985112;28;20450;-71
2023/12/09 02:29:20;;;;;;;5.40;2.00;;;;;;;;;;4987942;28;21002;-71
2023/12/09 02:31:47;;;;;;;3.30;2.57;;;;;;;;;;4990413;28;20520;-71
2023/12/09 02:34:14;;;;;;;6.13;2.50;;;;;;;;;;4986262;28;20436;-71
2023/12/09 02:36:41;;;;;;;2.93;2.40;;;;;;;;;;4988928;28;20426;-71
2023/12/09 02:39:08;;;;;;;3.67;3.20;;;;;;;;;;4986208;28;20437;-71
2023/12/09 02:41:34;;;;;;;7.77;2.10;;;;;;;;;;4987681;28;20449;-71
2023/12/09 02:44:00;;;;;;;4.30;2.30;;;;;;;;;;4982952;28;20795;-71
2023/12/09 02:46:26;;;;;;;9.07;3.30;;;;;;;;;;4990103;28;20452;-71
2023/12/09 02:48:52;;;;;;;4.00;2.40;;;;;;;;;;4990406;28;20435;-71
2023/12/09 02:51:18;;;;;;;5.73;2.90;;;;;;;;;;4988914;28;20433;-71
2023/12/09 02:53:44;;;;;;;3.03;2.07;;;;;;;;;;4990213;28;21264;-71
2023/12/09 02:56:10;;;;;;;3.43;2.30;;;;;;;;;;4989040;28;20452;-71
2023/12/09 02:58:36;;;;;;;3.07;1.93;;;;;;;;;;4990752;28;20433;-71
2023/12/09 03:01:02;;;;;;;6.33;2.70;;;;;;;;;;4989715;28;20452;-71
2023/12/09 03:03:28;;;;;;;3.90;1.90;;;;;;;;;;4986859;28;20432;-71
2023/12/09 03:05:54;;;;;;;3.60;1.70;;;;;;;;;;4986918;28;20492;-71
2023/12/09 03:08:20;;;;;;;3.60;2.30;;;;;;;;;;4988860;28;20491;-71
2023/12/09 03:10:46;;;;;;;2.23;1.67;;;;;;;;;;4989722;28;20425;-72
2023/12/09 03:13:13;;;;;;;3.63;2.00;;;;;;;;;;4987821;28;20557;-71
2023/12/09 03:15:39;;;;;;;1.67;1.67;;;;;;;;;;4989547;28;20648;-71
2023/12/09 03:18:05;;;;;;;7.30;2.07;;;;;;;;;;4990120;28;20503;-71
2023/12/09 03:20:31;;;;;;;3.50;1.70;;;;;;;;;;4990200;28;20503;-72
2023/12/09 03:22:57;;;;;;;1.80;1.80;;;;;;;;;;4987812;28;20436;-71
2023/12/09 03:25:23;;;;;;;2.57;2.37;;;;;;;;;;4988207;28;20503;-71
2023/12/09 03:27:49;;;;;;;2.80;2.47;;;;;;;;;;4987985;28;20460;-71
2023/12/09 03:30:15;;;;;;;2.50;2.40;;;;;;;;;;4987540;28;20717;-71
2023/12/09 03:32:41;;;;;;;3.97;2.23;;;;;;;;;;4987982;28;20432;-71
2023/12/09 03:35:07;;;;;;;3.00;2.20;;;;;;;;;;4988366;28;20483;-71
2023/12/09 03:37:33;;;;;;;5.93;2.40;;;;;;;;;;4984442;28;20515;-71
2023/12/09 03:39:59;;;;;;;2.33;1.70;;;;;;;;;;4990002;28;20429;-71
2023/12/09 03:42:25;;;;;;;4.00;2.00;;;;;;;;;;4988893;28;20520;-71
2023/12/09 03:44:51;;;;;;;2.30;2.13;;;;;;;;;;4984956;28;20584;-71
2023/12/09 03:47:17;;;;;;;2.17;2.07;;;;;;;;;;4985186;28;20488;-71
2023/12/09 03:49:43;;;;;;;2.73;2.20;;;;;;;;;;4987558;28;20441;-72
2023/12/09 03:52:09;;;;;;;6.03;1.97;;;;;;;;;;4986948;28;20432;-71
2023/12/09 03:54:37;;;;;;;4.90;1.93;;;;;;;;;;4987741;28;20476;-71
2023/12/09 03:57:03;;;;;;;2.30;1.87;;;;;;;;;;4988481;28;20475;-71
2023/12/09 03:59:29;;;;;;;5.50;2.43;;;;;;;;;;4989283;28;20803;-71
2023/12/09 04:01:55;;;;;;;5.57;1.83;;;;;;;;;;4987248;28;20433;-71
2023/12/09 04:04:21;;;;;;;4.50;2.00;;;;;;;;;;4982760;28;20484;-71
2023/12/09 04:06:47;;;;;;;2.30;2.10;;;;;;;;;;4989704;28;20472;-71
2023/12/09 04:09:13;;;;;;;6.43;2.13;;;;;;;;;;4988698;28;20440;-71
2023/12/09 04:11:39;;;;;;;3.30;1.77;;;;;;;;;;4987586;28;20491;-71
2023/12/09 04:14:05;;;;;;;4.87;1.87;;;;;;;;;;4980571;28;20452;-71
2023/12/09 04:16:31;;;;;;;4.20;2.00;;;;;;;;;;4985931;28;20449;-71
2023/12/09 04:18:57;;;;;;;2.13;1.83;;;;;;;;;;4987151;28;20428;-71
2023/12/09 04:21:23;;;;;;;1.80;1.70;;;;;;;;;;4987985;28;20528;-71
2023/12/09 04:23:49;;;;;;;8.70;2.20;;;;;;;;;;4989260;28;20503;-71
2023/12/09 04:26:15;;;;;;;3.83;1.53;;;;;;;;;;4990634;28;20584;-71
2023/12/09 04:28:41;;;;;;;3.90;1.50;;;;;;;;;;4991247;28;20436;-71
2023/12/09 04:31:07;;;;;;;2.50;1.63;;;;;;;;;;4992298;28;20444;-71
2023/12/09 04:33:33;;;;;;;3.57;2.60;;;;;;;;;;4993203;28;20439;-71
2023/12/09 04:35:59;;;;;;;3.23;1.63;;;;;;;;;;4991504;28;20429;-72
2023/12/09 04:38:26;;;;;;;3.63;1.80;;;;;;;;;;4989588;28;20442;-71
2023/12/09 04:40:52;;;;;;;4.07;2.07;;;;;;;;;;4992934;28;20821;-71
2023/12/09 04:43:18;;;;;;;2.53;1.53;;;;;;;;;;4991082;28;20936;-71
2023/12/09 04:45:44;;;;;;;1.47;1.37;;;;;;;;;;4991468;28;20487;-71
2023/12/09 04:48:10;;;;;;;1.47;1.37;;;;;;;;;;4986307;28;20437;-71
2023/12/09 04:50:36;;;;;;;5.10;1.47;;;;;;;;;;4991366;28;20484;-71
2023/12/09 04:53:02;;;;;;;4.47;1.30;;;;;;;;;;4992976;28;20429;-71
2023/12/09 04:55:28;;;;;;;3.43;1.60;;;;;;;;;;4989131;28;20848;-71
2023/12/09 04:57:54;;;;;;;2.60;1.27;;;;;;;;;;4990882;28;20985;-71
2023/12/09 05:00:21;;;;;;;2.17;1.10;;;;;;;;;;4992159;28;20914;-71
2023/12/09 05:02:47;;;;;;;3.23;1.37;;;;;;;;;;4989065;28;20445;-71
2023/12/09 05:05:14;;;;;;;2.03;0.80;;;;;;;;;;4991035;28;20488;-71
2023/12/09 05:07:40;;;;;;;1.77;1.10;;;;;;;;;;4990692;28;20430;-71
2023/12/09 05:10:06;;;;;;;0.80;0.80;;;;;;;;;;4989981;28;20471;-71
2023/12/09 05:12:32;;;;;;;0.90;0.90;;;;;;;;;;4991284;28;20441;-71
2023/12/09 05:14:59;;;;;;;2.30;1.00;;;;;;;;;;4988727;28;21013;-71
2023/12/09 05:17:25;;;;;;;3.87;1.30;;;;;;;;;;4992775;28;20925;-71
2023/12/09 05:19:51;;;;;;;2.53;1.40;;;;;;;;;;4992396;28;20433;-71
2023/12/09 05:22:17;;;;;;;1.00;1.00;;;;;;;;;;4988572;28;20495;-72
2023/12/09 05:24:43;;;;;;;2.70;1.00;;;;;;;;;;4991511;28;20631;-71
2023/12/09 05:27:09;;;;;;;0.60;0.60;;;;;;;;;;4988040;28;20524;-71
2023/12/09 05:29:35;;;;;;;1.73;1.10;;;;;;;;;;4988037;28;20468;-71
2023/12/09 05:32:00;;;;;;;1.17;0.90;;;;;;;;;;4991442;28;20441;-71
2023/12/09 05:34:26;;;;;;;1.70;0.50;;;;;;;;;;4988212;28;20442;-71
2023/12/09 05:36:52;;;;;;;0.83;0.83;;;;;;;;;;4991297;28;20444;-71
2023/12/09 05:39:19;;;;;;;1.37;0.70;;;;;;;;;;4990816;28;20443;-71
2023/12/09 05:41:45;;;;;;;2.23;0.87;;;;;;;;;;4990769;28;20429;-71
2023/12/09 05:44:10;;;;;;;5.70;1.40;;;;;;;;;;4990170;28;20478;-71
2023/12/09 05:46:36;;;;;;;0.70;0.70;;;;;;;;;;4991468;28;20433;-71
2023/12/09 05:49:03;;;;;;;0.60;0.60;;;;;;;;;;4990929;28;20920;-71
2023/12/09 05:51:29;;;;;;;0.60;0.60;;;;;;;;;;4990276;28;20425;-71
2023/12/09 05:53:55;;;;;;;1.13;0.87;;;;;;;;;;4991873;28;20840;-71
2023/12/09 05:56:21;;;;;;;1.70;0.77;;;;;;;;;;4990285;28;20449;-71
2023/12/09 05:58:47;;;;;;;0.80;0.80;;;;;;;;;;4987460;28;20540;-71
2023/12/09 06:01:14;;;;;;;0.60;0.60;;;;;;;;;;4989925;28;20929;-71
2023/12/09 06:03:40;;;;;;;0.80;0.80;;;;;;;;;;4990635;28;20429;-71
2023/12/09 06:06:06;;;;;;;1.20;0.80;;;;;;;;;;4985276;28;20508;-71
2023/12/09 06:08:32;;;;;;;1.30;1.23;;;;;;;;;;4989546;28;20944;-71
2023/12/09 06:10:58;;;;;;;0.80;0.80;;;;;;;;;;4990190;28;20960;-71
2023/12/09 06:13:24;;;;;;;0.70;0.70;;;;;;;;;;4990415;28;20409;-71
2023/12/09 06:15:50;;;;;;;0.80;0.80;;;;;;;;;;4989504;28;20437;-71
2023/12/09 06:18:16;;;;;;;3.70;0.83;;;;;;;;;;4988894;28;21066;-71
2023/12/09 06:20:42;;;;;;;1.27;0.87;;;;;;;;;;4988693;28;20441;-71
2023/12/09 06:23:08;;;;;;;0.70;0.70;;;;;;;;;;4987553;28;20488;-71
2023/12/09 06:25:34;;;;;;;2.10;0.70;;;;;;;;;;4988077;28;20513;-71
2023/12/09 06:28:00;;;;;;;0.77;0.77;;;;;;;;;;4987951;28;20877;-71
2023/12/09 06:30:26;;;;;;;2.83;0.97;;;;;;;;;;4987822;28;20829;-71
2023/12/09 06:32:52;;;;;;;1.20;0.90;;;;;;;;;;4989569;28;20429;-71
2023/12/09 06:35:18;;;;;;;1.40;0.73;;;;;;;;;;4987744;28;20454;-71
2023/12/09 06:37:44;;;;;;;1.07;0.73;;;;;;;;;;4988261;28;20429;-70
2023/12/09 06:40:10;;;;;;;2.53;0.50;;;;;;;;;;4989212;28;20436;-71
2023/12/09 06:42:38;;;;;;;1.60;0.80;;;;;;;;;;4989757;28;20527;-71
2023/12/09 06:45:04;;;;;;;0.60;0.60;;;;;;;;;;4989629;28;20612;-71
2023/12/09 06:47:30;;;;;;;0.70;0.70;;;;;;;;;;4985503;28;21617;-71
2023/12/09 06:49:56;;;;;;;0.87;0.80;;;;;;;;;;4984886;28;20449;-70
2023/12/09 06:52:22;;;;;;;1.13;0.63;;;;;;;;;;4988709;28;20433;-71
2023/12/09 06:54:47;;;;;;;0.60;0.60;;;;;;;;;;4986667;28;20536;-71
2023/12/09 06:57:13;;;;;;;0.67;0.60;;;;;;;;;;4986968;28;20473;-71
2023/12/09 06:59:39;;;;;;;1.53;0.90;;;;;;;;;;4986412;28;20969;-71
2023/12/09 07:02:05;;;;;;;1.50;0.83;;;;;;;;;;4986954;28;20433;-71
2023/12/09 07:04:33;;;;;;;1.70;0.50;;;;;;;;;;4984893;28;20543;-71
2023/12/09 07:07:02;;;;;;;1.00;0.93;;;;;;;;;;4987276;28;21017;-71
2023/12/09 07:09:28;;;;;;;2.20;1.20;;;;;;;;;;4987966;28;20440;-71
2023/12/09 07:11:55;;;;;;;0.80;0.80;;;;;;;;;;4985886;28;20951;-70
2023/12/09 07:14:20;;;;;;;1.10;1.10;;;;;;;;;;4987441;28;20417;-69
2023/12/09 07:16:46;;;;;;;1.17;0.83;;;;;;;;;;4987315;28;20447;-71
2023/12/09 07:19:12;;;;;;;2.63;1.23;;;;;;;;;;4989007;28;20532;-74
2023/12/09 07:21:39;;;;;;;2.27;0.93;;;;;;;;;;4989406;28;20436;-74
2023/12/09 07:24:06;;;;;;;1.80;0.67;;;;;;;;;;4986540;28;20437;-71
2023/12/09 07:26:32;;;;;;;0.60;0.60;;;;;;;;;;4987395;28;20439;-70
2023/12/09 07:28:58;;;;;;;0.70;0.70;;;;;;;;;;4989994;28;20858;-70
2023/12/09 07:31:24;;;;;;;2.67;1.17;;;;;;;;;;4985481;28;21028;-71
2023/12/09 07:33:49;;;;;;;0.80;0.80;;;;;;;;;;4989906;28;20433;-70
2023/12/09 07:36:15;;;;;;;0.93;0.93;;;;;;;;;;4988951;28;20437;-67
2023/12/09 07:38:41;;;;;;;2.50;1.23;;;;;;;;;;4989440;28;20421;-70
2023/12/09 07:41:07;;;;;;;1.90;1.67;;;;;;;;;;4988095;28;20482;-70
2023/12/09 07:43:33;;;;;;;0.60;0.60;;;;;;;;;;4988646;28;20428;-74
2023/12/09 07:45:59;;;;;;;0.90;0.90;;;;;;;;;;4984166;28;20527;-72
2023/12/09 07:48:26;;;;;;;0.87;0.80;;;;;;;;;;4986918;28;20953;-70
2023/12/09 07:50:52;;;;;;;0.70;0.70;;;;;;;;;;4987558;28;20467;-70
2023/12/09 07:53:18;;;;;;;2.40;2.30;;;;;;;;;;4985797;28;20441;-70
2023/12/09 07:55:44;;;;;;;1.07;0.67;;;;;;;;;;4979676;28;20534;-70
2023/12/09 07:58:10;;;;;;;2.70;1.10;;;;;;;;;;4985327;28;20432;-71
2023/12/09 08:00:35;;;;;;;1.40;0.90;;;;;;;;;;4984673;28;20452;-70
2023/12/09 08:03:05;;;;;;;3.90;1.00;;;;;;;;;;4985151;28;20437;-70
2023/12/09 08:05:38;;;;;;;1.27;1.10;;;;;;;;;;4984458;28;20918;-70
2023/12/09 08:08:04;;;;;;;1.80;1.10;;;;;;;;;;4989279;28;20533;-70
2023/12/09 08:10:30;;;;;;;0.50;0.50;;;;;;;;;;4988533;28;20433;-70
2023/12/09 08:12:56;;;;;;;3.40;0.60;;;;;;;;;;4977163;28;20491;-71
2023/12/09 08:15:22;;;;;;;0.60;0.60;;;;;;;;;;4982173;28;20997;-71
2023/12/09 08:17:48;;;;;;;0.83;0.80;;;;;;;;;;4987200;28;20417;-70
2023/12/09 08:20:16;;;;;;;1.83;1.73;;;;;;;;;;4983728;28;20873;-71
2023/12/09 08:22:42;;;;;;;2.00;1.90;;;;;;;;;;4986066;28;20183;-71
2023/12/09 08:25:09;;;;;;;1.20;1.10;;;;;;;;;;4988469;28;20538;-71
2023/12/09 08:27:35;;;;;;;5.03;0.77;;;;;;;;;;4985661;28;20445;-71
2023/12/09 08:30:03;;;;;;;0.60;0.60;;;;;;;;;;4989196;28;20446;-72
2023/12/09 08:32:29;;;;;;;1.23;1.13;;;;;;;;;;4984280;28;20443;-71
2023/12/09 08:34:54;;;;;;;0.70;0.70;;;;;;;;;;4983123;28;20801;-68
2023/12/09 08:37:25;;;;;;;1.53;1.53;;;;;;;;;;4986851;28;20461;-71
2023/12/09 08:39:53;;;;;;;1.33;0.80;;;;;;;;;;4983928;28;20786;-63
2023/12/09 08:42:19;;;;;;;1.37;1.17;;;;;;;;;;4980245;28;20449;-71
2023/12/09 08:44:45;;;;;;;1.90;1.90;;;;;;;;;;4979792;28;20469;-74
2023/12/09 08:47:11;;;;;;;1.55;1.55;;;;;;;;;;4984489;28;20760;-72
2023/12/09 08:49:37;;;;;;;1.30;0.83;;;;;;;;;;4985070;28;20190;-72
2023/12/09 08:52:03;;;;;;;0.50;0.50;;;;;;;;;;4983530;28;20452;-70
2023/12/09 08:54:28;;;;;;;7.00;4.47;;;;;;;;;;4983339;28;20468;-70
2023/12/09 08:56:54;;;;;;;1.10;1.10;;;;;;;;;;4982643;28;20890;-70
2023/12/09 08:59:20;;;;;;;0.60;0.60;;;;;;;;;;4987527;28;20497;-71
2023/12/09 09:01:46;;;;;;;1.97;1.07;;;;;;;;;;4988612;28;20441;-65
2023/12/09 09:04:12;;;;;;;2.87;1.20;;;;;;;;;;4980568;28;20454;-70
2023/12/09 09:06:38;;;;;;;3.30;0.90;;;;;;;;;;4981262;28;20574;-71
2023/12/09 09:09:04;;;;;;;5.00;4.60;;;;;;;;;;4981457;28;20440;-71
2023/12/09 09:11:30;;;;;;;4.13;1.43;;;;;;;;;;4985245;28;20499;-71
2023/12/09 09:13:56;;;;;;;1.43;0.70;;;;;;;;;;4983824;28;20436;-70
2023/12/09 09:16:22;;;;;;;1.27;0.97;;;;;;;;;;4984059;28;20809;-68
2023/12/09 09:18:48;;;;;;;0.70;0.70;;;;;;;;;;4991890;28;20507;-71
2023/12/09 09:21:16;;;;;;;0.60;0.60;;;;;;;;;;4985394;28;20457;-71
2023/12/09 09:23:42;;;;;;;2.37;0.77;;;;;;;;;;4982488;28;20528;-70
2023/12/09 09:26:08;;;;;;;3.30;0.83;;;;;;;;;;4984472;28;20581;-70
2023/12/09 09:28:34;;;;;;;0.93;0.90;;;;;;;;;;4990572;28;20441;-71
2023/12/09 09:31:00;;;;;;;0.57;0.57;;;;;;;;;;4986778;28;20450;-71
2023/12/09 09:33:26;;;;;;;1.00;1.00;;;;;;;;;;4990072;28;20441;-71
2023/12/09 09:35:54;;;;;;;1.43;1.30;;;;;;;;;;4984385;28;20437;-71
2023/12/09 09:38:20;;;;;;;2.50;0.80;;;;;;;;;;4988533;28;20481;-71
2023/12/09 09:40:46;;;;;;;2.03;0.60;;;;;;;;;;4988169;28;21673;-70
2023/12/09 09:43:23;;;;;;;4.30;0.50;;;;;;;;;;4985432;28;20476;-70
2023/12/09 09:45:50;;;;;;;0.50;0.50;;;;;;;;;;4987526;28;22617;-70
2023/12/09 09:48:17;;;;;;;0.60;0.57;;;;;;;;;;4983946;28;20447;-71
2023/12/09 09:50:49;;;;;;;2.17;0.60;;;;;;;;;;4988818;28;20441;-71
2023/12/09 09:53:20;;;;;;;1.33;0.80;;;;;;;;;;4990009;28;20447;-71
2023/12/09 09:55:46;;;;;;;1.30;0.90;;;;;;;;;;4989552;28;20501;-71
2023/12/09 09:58:12;;;;;;;0.50;0.50;;;;;;;;;;4985414;28;20998;-71
2023/12/09 10:00:39;;;;;;;0.90;0.90;;;;;;;;;;4989535;28;20472;-70
2023/12/09 10:03:05;;;;;;;0.60;0.60;;;;;;;;;;4981367;28;20461;-71
2023/12/09 10:05:31;;;;;;;1.15;1.05;;;;;;;;;;4980792;28;20453;-71
2023/12/09 10:07:57;;;;;;;1.37;1.00;;;;;;;;;;4982303;28;20190;-71
2023/12/09 10:10:23;;;;;;;1.20;1.20;;;;;;;;;;4989431;28;20445;-71
2023/12/09 10:12:50;;;;;;;0.73;0.73;;;;;;;;;;4980451;28;20432;-70
2023/12/09 10:15:16;;;;;;;1.20;0.70;;;;;;;;;;4983989;28;20448;-71
2023/12/09 10:17:42;;;;;;;2.30;2.30;;;;;;;;;;4985210;28;20535;-70
2023/12/09 10:20:09;;;;;;;2.43;0.90;;;;;;;;;;4987220;28;20535;-71
2023/12/09 10:22:35;;;;;;;1.10;1.10;;;;;;;;;;4990456;28;20440;-70
2023/12/09 10:25:01;;;;;;;2.57;2.47;;;;;;;;;;4986855;28;20484;-71
2023/12/09 10:27:27;;;;;;;0.73;0.73;;;;;;;;;;4989273;28;20500;-71
2023/12/09 10:29:53;;;;;;;0.93;0.60;;;;;;;;;;4986242;28;20445;-70
2023/12/09 10:32:23;;;;;;;0.63;0.63;;;;;;;;;;4990393;28;20420;-70
2023/12/09 10:34:49;;;;;;;5.40;0.90;;;;;;;;;;4988601;28;20450;-70
2023/12/09 10:37:16;;;;;;;1.53;1.53;;;;;;;;;;4988383;28;20498;-72
2023/12/09 10:39:46;;;;;;;2.77;1.73;;;;;;;;;;4987155;28;20436;-70
2023/12/09 10:42:12;;;;;;;0.53;0.53;;;;;;;;;;4989428;28;20452;-70
2023/12/09 10:44:38;;;;;;;1.90;1.80;;;;;;;;;;4985461;28;20473;-70
2023/12/09 10:47:04;;;;;;;3.43;1.67;;;;;;;;;;4989391;28;20468;-70
2023/12/09 10:49:31;;;;;;;2.03;1.70;;;;;;;;;;4986838;28;20516;-70
2023/12/09 10:51:57;;;;;;;0.60;0.60;;;;;;;;;;4989864;28;20445;-71
2023/12/09 10:54:23;;;;;;;1.53;1.30;;;;;;;;;;4984547;28;20433;-71
2023/12/09 10:56:49;;;;;;;0.90;0.90;;;;;;;;;;4981802;28;20445;-70
2023/12/09 10:59:17;;;;;;;2.50;2.30;;;;;;;;;;4985409;28;20442;-70
2023/12/09 11:01:45;;;;;;;1.37;1.30;;;;;;;;;;4986137;28;20486;-70
2023/12/09 11:04:12;;;;;;;2.13;2.00;;;;;;;;;;4988573;28;20545;-73
2023/12/09 11:06:39;;;;;;;4.53;3.70;;;;;;;;;;4983346;28;20484;-70
2023/12/09 11:09:06;;;;;;;1.00;1.00;;;;;;;;;;4990522;28;20515;-70
2023/12/09 11:11:32;;;;;;;3.27;2.80;;;;;;;;;;4984643;28;20440;-71
2023/12/09 11:13:58;;;;;;;3.77;3.43;;;;;;;;;;4989588;28;20417;-71
2023/12/09 11:16:28;;;;;;;1.30;1.30;;;;;;;;;;4985932;28;20442;-70
2023/12/09 11:18:55;;;;;;;2.13;2.03;;;;;;;;;;4988793;28;20523;-70
2023/12/09 11:21:23;;;;;;;10.53;5.97;;;;;;;;;;4986620;28;20428;-71
2023/12/09 11:23:50;;;;;;;5.07;4.10;;;;;;;;;;4989716;28;20514;-70
2023/12/09 11:26:19;;;;;;;10.90;6.70;;;;;;;;;;4986964;28;21014;-70
2023/12/09 11:29:04;;;;;;;11.27;9.50;;;;;;;;;;4989355;28;20433;-70
2023/12/09 11:31:41;;;;;;;107.97;48.93;;;;;;;;;;4980829;28;20452;-70
2023/12/09 11:34:07;;;;;;;63.33;28.07;;;;;;;;;;4987543;28;20452;-71
2023/12/09 11:36:38;;;;;;;26.80;15.43;;;;;;;;;;4982690;28;20451;-69
2023/12/09 11:39:06;;;;;;;21.03;11.97;;;;;;;;;;4982890;28;20441;-70
2023/12/09 11:41:32;;;;;;;4.07;3.80;;;;;;;;;;4988481;28;20440;-70
2023/12/09 11:43:59;;;;;;;5.77;4.20;;;;;;;;;;4986402;28;20425;-70
2023/12/09 11:46:26;;;;;;;5.97;5.47;;;;;;;;;;4980427;28;20492;-71
2023/12/09 11:48:52;;;;;;;12.13;7.93;;;;;;;;;;4988302;28;20507;-70
2023/12/09 11:51:18;;;;;;;31.40;22.13;;;;;;;;;;4985463;28;20449;-70
2023/12/09 11:54:01;;;;;;;6.07;5.60;;;;;;;;;;4988738;28;20778;-70
2023/12/09 11:56:28;;;;;;;2.27;2.17;;;;;;;;;;4986109;28;20878;-70
2023/12/09 11:58:54;;;;;;;5.80;5.13;;;;;;;;;;4989661;28;20437;-70
2023/12/09 12:01:20;;;;;;;32.17;17.67;;;;;;;;;;4987335;28;20432;-70
2023/12/09 12:03:49;;;;;;;10.20;7.83;;;;;;;;;;4986868;28;20427;-69
2023/12/09 12:06:16;;;;;;;32.87;20.53;;;;;;;;;;4984669;28;20500;-70
2023/12/09 12:08:49;;;;;;;18.90;12.47;;;;;;;;;;4988755;28;20425;-70
2023/12/09 12:11:18;;;;;;;21.47;12.40;;;;;;;;;;4985074;28;20437;-69
2023/12/09 12:13:44;;;;;;;10.00;8.20;;;;;;;;;;4985155;28;20494;-70
2023/12/09 12:16:14;;;;;;;2.03;2.03;;;;;;;;;;4982473;28;20456;-69
2023/12/09 12:18:40;;;;;;;3.20;3.00;;;;;;;;;;4987475;28;20469;-70
2023/12/09 12:21:06;;;;;;;2.20;1.37;;;;;;;;;;4988263;28;21200;-73
2023/12/09 12:23:33;;;;;;;1.10;1.10;;;;;;;;;;4980682;28;20995;-71
2023/12/09 12:25:59;;;;;;;0.80;0.80;;;;;;;;;;4979552;28;20485;-70
2023/12/09 12:28:25;;;;;;;2.10;1.47;;;;;;;;;;4987871;28;20487;-70
2023/12/09 12:30:56;;;;;;;4.33;3.70;;;;;;;;;;4987791;28;20560;-70
2023/12/09 12:33:25;;;;;;;11.70;8.67;;;;;;;;;;4989389;28;20500;-70
2023/12/09 12:35:51;;;;;;;10.47;9.30;;;;;;;;;;4988185;28;20844;-70
2023/12/09 12:38:17;;;;;;;12.30;10.10;;;;;;;;;;4984313;28;20491;-70
2023/12/09 12:40:43;;;;;;;3.57;3.30;;;;;;;;;;4985967;28;20556;-71
2023/12/09 12:43:09;;;;;;;4.60;4.20;;;;;;;;;;4985896;28;20812;-71
2023/12/09 12:45:36;;;;;;;6.57;5.93;;;;;;;;;;4988001;28;20852;-71
2023/12/09 12:48:03;;;;;;;4.10;3.70;;;;;;;;;;4991119;28;21489;-70
2023/12/09 12:50:29;;;;;;;3.10;2.93;;;;;;;;;;4990410;28;20511;-71
2023/12/09 12:52:55;;;;;;;3.60;3.40;;;;;;;;;;4991267;28;20913;-69
2023/12/09 12:55:21;;;;;;;6.27;4.07;;;;;;;;;;4993171;28;20433;-71
2023/12/09 12:57:47;;;;;;;2.63;2.53;;;;;;;;;;4986489;28;20456;-71
2023/12/09 13:00:14;;;;;;;0.73;0.73;;;;;;;;;;4984565;28;20452;-70
2023/12/09 13:02:40;;;;;;;5.33;4.37;;;;;;;;;;4987164;28;20469;-71
2023/12/09 13:05:06;;;;;;;6.43;4.53;;;;;;;;;;4985801;28;20499;-71
2023/12/09 13:07:32;;;;;;;3.00;2.70;;;;;;;;;;4989839;28;21028;-70
2023/12/09 13:09:59;;;;;;;2.33;2.23;;;;;;;;;;4988042;28;20803;-71
2023/12/09 13:12:25;;;;;;;2.43;2.33;;;;;;;;;;4986651;28;20460;-71
2023/12/09 13:14:51;;;;;;;4.00;1.63;;;;;;;;;;4989766;28;20437;-70
2023/12/09 13:17:17;;;;;;;1.33;0.80;;;;;;;;;;4992147;28;20528;-73
2023/12/09 13:19:43;;;;;;;1.30;1.20;;;;;;;;;;4986690;28;20528;-70
2023/12/09 13:22:10;;;;;;;1.80;1.40;;;;;;;;;;4983211;28;20804;-70
2023/12/09 13:24:36;;;;;;;1.40;1.37;;;;;;;;;;4989688;28;20535;-71
2023/12/09 13:27:02;;;;;;;1.27;1.17;;;;;;;;;;4988891;28;20479;-70
2023/12/09 13:29:28;;;;;;;2.43;1.47;;;;;;;;;;4989168;28;20456;-71
2023/12/09 13:31:54;;;;;;;0.93;0.93;;;;;;;;;;4989194;28;20485;-71
2023/12/09 13:34:20;;;;;;;2.20;1.90;;;;;;;;;;4986569;28;20452;-70
2023/12/09 13:36:46;;;;;;;2.07;1.67;;;;;;;;;;4989402;28;20487;-71
2023/12/09 13:39:14;;;;;;;0.97;0.97;;;;;;;;;;4991573;28;20436;-71
2023/12/09 13:41:40;;;;;;;1.23;0.90;;;;;;;;;;4976281;28;20456;-71
2023/12/09 13:44:06;;;;;;;1.63;1.50;;;;;;;;;;4989549;28;20472;-71
2023/12/09 13:46:32;;;;;;;1.30;1.30;;;;;;;;;;4983803;28;21028;-70
2023/12/09 13:48:58;;;;;;;4.10;2.37;;;;;;;;;;4988157;28;20886;-70
2023/12/09 13:51:24;;;;;;;3.13;1.80;;;;;;;;;;4990060;28;20933;-70
2023/12/09 13:53:50;;;;;;;2.90;2.70;;;;;;;;;;4984288;28;20437;-70
2023/12/09 13:56:15;;;;;;;6.67;4.33;;;;;;;;;;4987854;28;20452;-71
2023/12/09 13:58:41;;;;;;;1.60;1.50;;;;;;;;;;4985990;28;20495;-70
2023/12/09 14:01:07;;;;;;;11.03;6.60;;;;;;;;;;4985184;28;20440;-70
2023/12/09 14:03:33;;;;;;;9.70;6.47;;;;;;;;;;4987392;28;20504;-70
2023/12/09 14:05:59;;;;;;;5.63;3.50;;;;;;;;;;4988527;28;20531;-70
2023/12/09 14:08:25;;;;;;;23.83;9.20;;;;;;;;;;4987556;28;20450;-70
2023/12/09 14:10:51;;;;;;;6.40;5.00;;;;;;;;;;4985580;28;20457;-70
2023/12/09 14:13:18;;;;;;;5.30;3.13;;;;;;;;;;4978515;28;20508;-71
2023/12/09 14:15:44;;;;;;;6.80;4.23;;;;;;;;;;4986220;28;20943;-71
2023/12/09 14:18:10;;;;;;;13.60;6.87;;;;;;;;;;4986342;28;20452;-71
2023/12/09 14:20:36;;;;;;;2.60;2.10;;;;;;;;;;4983729;28;20595;-71
2023/12/09 14:23:02;;;;;;;10.93;6.60;;;;;;;;;;4983747;28;20520;-71
2023/12/09 14:25:28;;;;;;;2.60;2.50;;;;;;;;;;4988327;28;20619;-71
2023/12/09 14:27:54;;;;;;;1.60;1.50;;;;;;;;;;4986283;28;20979;-72
2023/12/09 14:30:20;;;;;;;4.13;3.87;;;;;;;;;;4985963;28;20437;-71
2023/12/09 14:32:46;;;;;;;1.97;1.97;;;;;;;;;;4985596;28;20859;-70
2023/12/09 14:35:13;;;;;;;3.73;3.57;;;;;;;;;;4986880;28;20462;-73
2023/12/09 14:37:40;;;;;;;2.80;2.60;;;;;;;;;;4985853;28;20469;-71